Time;durP1;ratioP1;P1;durP2;ratioP2;P2;SDS_P1;SDS_P2;PMS_P1;PMS_P2;Temp;Humidity;BMP_temperature;BMP_pressure;BME280_temperature;BME280_humidity;BME280_pressure;Samples;Min_cycle;Max_cycle;Signal;HPM_P1;HPM_P2
2021/07/18 00:01:32;;;;;;;15.50;10.57;;;26.30;71.70;;;;;;5054166;28;20025;-72
2021/07/18 00:03:58;;;;;;;12.48;9.38;;;26.40;71.80;;;;;;5054366;28;20485;-72
2021/07/18 00:06:23;;;;;;;13.63;10.15;;;26.30;71.70;;;;;;5054044;28;20074;-72
2021/07/18 00:08:49;;;;;;;15.30;10.63;;;26.40;71.80;;;;;;5054503;28;20029;-72
2021/07/18 00:11:15;;;;;;;15.70;10.45;;;26.30;71.80;;;;;;5054259;28;20032;-71
2021/07/18 00:13:41;;;;;;;15.85;10.85;;;26.30;71.90;;;;;;5054186;28;20390;-72
2021/07/18 00:16:07;;;;;;;15.05;10.80;;;26.30;72.00;;;;;;5054472;28;20159;-72
2021/07/18 00:18:32;;;;;;;17.73;10.30;;;26.30;72.00;;;;;;5053878;28;20096;-72
2021/07/18 00:20:58;;;;;;;18.92;11.57;;;26.30;72.00;;;;;;5054367;28;20039;-72
2021/07/18 00:23:24;;;;;;;12.40;9.93;;;26.30;72.00;;;;;;5036271;28;20048;-72
2021/07/18 00:25:49;;;;;;;16.70;10.30;;;26.30;72.00;;;;;;5054240;28;20075;-72
2021/07/18 00:28:15;;;;;;;16.35;10.38;;;26.30;72.10;;;;;;5053735;28;20029;-72
2021/07/18 00:30:41;;;;;;;14.88;10.30;;;26.30;72.20;;;;;;5054212;28;20057;-72
2021/07/18 00:33:06;;;;;;;13.93;10.32;;;26.30;72.30;;;;;;5053622;28;20021;-72
2021/07/18 00:35:34;;;;;;;20.05;10.95;;;26.20;72.30;;;;;;5054090;28;20029;-72
2021/07/18 00:38:00;;;;;;;13.27;10.23;;;26.20;72.40;;;;;;5053747;28;20087;-72
2021/07/18 00:40:26;;;;;;;13.05;9.82;;;26.20;72.70;;;;;;5053513;28;20094;-71
2021/07/18 00:42:51;;;;;;;17.05;10.27;;;26.10;72.80;;;;;;5054023;28;20455;-72
2021/07/18 00:45:17;;;;;;;15.75;10.98;;;26.10;73.00;;;;;;5053569;28;20041;-72
2021/07/18 00:47:43;;;;;;;12.32;9.70;;;26.10;73.80;;;;;;5052604;28;20387;-72
2021/07/18 00:50:15;;;;;;;17.20;10.25;;;26.10;73.30;;;;;;5053787;28;20052;-72
2021/07/18 00:52:41;;;;;;;13.23;10.05;;;26.10;73.30;;;;;;5054000;28;20025;-72
2021/07/18 00:55:09;;;;;;;15.73;10.45;;;26.10;73.30;;;;;;5053551;28;20029;-72
2021/07/18 00:57:36;;;;;;;11.27;9.27;;;26.20;73.50;;;;;;5051978;28;20051;-72
2021/07/18 01:00:06;;;;;;;17.27;11.10;;;26.20;73.50;;;;;;5053737;28;20028;-72
2021/07/18 01:02:32;;;;;;;12.75;10.25;;;26.20;73.40;;;;;;5053439;28;20028;-72
2021/07/18 01:04:59;;;;;;;13.73;10.35;;;26.20;73.40;;;;;;5053361;28;20112;-72
2021/07/18 01:07:25;;;;;;;13.20;10.27;;;26.20;73.50;;;;;;5053107;28;20029;-72
2021/07/18 01:09:52;;;;;;;13.45;9.95;;;26.20;73.50;;;;;;5053914;28;20029;-72
2021/07/18 01:12:17;;;;;;;16.02;11.02;;;26.20;73.50;;;;;;5053098;28;20049;-72
2021/07/18 01:14:44;;;;;;;15.77;10.38;;;26.20;73.60;;;;;;5053629;28;20068;-72
2021/07/18 01:17:10;;;;;;;15.40;10.25;;;26.20;73.60;;;;;;5053359;28;20027;-72
2021/07/18 01:19:39;;;;;;;13.38;10.57;;;26.20;73.70;;;;;;5052684;28;20434;-72
2021/07/18 01:22:05;;;;;;;15.75;10.68;;;26.20;73.70;;;;;;5053216;28;20079;-72
2021/07/18 01:24:31;;;;;;;17.42;10.50;;;26.20;73.80;;;;;;5053214;28;20037;-71
2021/07/18 01:26:58;;;;;;;16.23;10.27;;;26.20;73.80;;;;;;5053822;28;20053;-72
2021/07/18 01:29:25;;;;;;;14.70;10.80;;;26.20;73.80;;;;;;5053263;28;20021;-72
2021/07/18 01:31:51;;;;;;;12.77;10.38;;;26.20;73.80;;;;;;5053400;28;20025;-72
2021/07/18 01:34:17;;;;;;;15.55;10.90;;;26.30;73.80;;;;;;5053159;28;20032;-70
2021/07/18 01:36:42;;;;;;;18.23;10.02;;;26.30;73.80;;;;;;5052797;28;20021;-71
2021/07/18 01:39:11;;;;;;;13.13;11.13;;;26.20;73.70;;;;;;5053621;28;20025;-71
2021/07/18 01:41:37;;;;;;;13.30;10.68;;;26.20;73.80;;;;;;5051777;28;20048;-72
2021/07/18 01:44:05;;;;;;;14.18;10.15;;;26.20;73.90;;;;;;5052993;28;20041;-72
2021/07/18 01:46:31;;;;;;;15.68;10.02;;;26.20;74.00;;;;;;5052730;28;20360;-72
2021/07/18 01:48:58;;;;;;;15.15;11.13;;;26.20;74.10;;;;;;5053045;28;20113;-73
2021/07/18 01:51:26;;;;;;;16.65;10.10;;;26.20;74.20;;;;;;5052813;28;20112;-71
2021/07/18 01:53:53;;;;;;;15.48;10.85;;;26.10;74.20;;;;;;5053541;28;20156;-71
2021/07/18 01:56:20;;;;;;;14.00;10.60;;;26.10;74.20;;;;;;5053514;28;20108;-72
2021/07/18 01:58:50;;;;;;;14.73;10.55;;;26.20;74.40;;;;;;5055333;28;20021;-71
2021/07/18 02:01:16;;;;;;;12.98;9.95;;;26.10;74.40;;;;;;5056585;28;20025;-71
2021/07/18 02:03:43;;;;;;;15.00;10.35;;;26.20;74.40;;;;;;5055102;28;20479;-71
2021/07/18 02:06:09;;;;;;;15.10;10.38;;;26.20;74.50;;;;;;5056876;28;20083;-71
2021/07/18 02:08:35;;;;;;;13.48;11.30;;;26.20;74.50;;;;;;5056319;28;20025;-71
2021/07/18 02:11:01;;;;;;;15.65;11.02;;;26.20;74.50;;;;;;5056242;28;20498;-72
2021/07/18 02:13:27;;;;;;;12.27;10.98;;;26.20;74.50;;;;;;5056426;28;20028;-71
2021/07/18 02:15:52;;;;;;;13.43;10.93;;;26.20;74.60;;;;;;5056036;28;20049;-71
2021/07/18 02:18:18;;;;;;;16.70;10.25;;;26.20;74.70;;;;;;5056422;28;20024;-71
2021/07/18 02:20:44;;;;;;;12.50;10.02;;;26.20;74.60;;;;;;5056808;28;20040;-71
2021/07/18 02:23:10;;;;;;;15.23;10.80;;;26.20;74.70;;;;;;5056723;28;20029;-71
2021/07/18 02:25:36;;;;;;;13.77;10.50;;;26.20;74.80;;;;;;5056510;28;20078;-71
2021/07/18 02:28:02;;;;;;;13.75;11.07;;;26.20;74.70;;;;;;5056392;28;20029;-76
2021/07/18 02:30:29;;;;;;;16.50;10.52;;;26.20;74.70;;;;;;5056180;28;20467;-71
2021/07/18 02:32:55;;;;;;;13.00;10.82;;;26.30;74.70;;;;;;5056572;28;20029;-71
2021/07/18 02:35:22;;;;;;;13.23;11.10;;;26.30;74.50;;;;;;5056192;28;20400;-71
2021/07/18 02:37:49;;;;;;;18.10;11.25;;;26.40;74.50;;;;;;5054736;28;20115;-71
2021/07/18 02:40:17;;;;;;;16.40;11.65;;;26.40;74.40;;;;;;5054789;28;20075;-71
2021/07/18 02:42:43;;;;;;;14.02;10.15;;;26.40;74.40;;;;;;5055928;28;20036;-71
2021/07/18 02:45:11;;;;;;;19.27;12.32;;;26.40;74.30;;;;;;5055783;28;20044;-71
2021/07/18 02:47:37;;;;;;;13.77;10.93;;;26.40;74.30;;;;;;5054502;28;20452;-71
2021/07/18 02:50:08;;;;;;;14.35;11.40;;;26.40;74.30;;;;;;5054959;28;20500;-73
2021/07/18 02:52:34;;;;;;;14.18;10.50;;;26.40;74.30;;;;;;5055751;28;20036;-72
2021/07/18 02:55:00;;;;;;;14.85;11.93;;;26.40;74.20;;;;;;5055742;28;20025;-72
2021/07/18 02:57:26;;;;;;;15.90;11.43;;;26.40;74.20;;;;;;5055377;28;20025;-72
2021/07/18 02:59:51;;;;;;;16.83;11.75;;;26.50;74.30;;;;;;5055877;28;20036;-72
2021/07/18 03:02:17;;;;;;;16.75;11.50;;;26.50;74.20;;;;;;5055300;28;20039;-72
2021/07/18 03:04:44;;;;;;;15.90;11.93;;;26.40;74.10;;;;;;5053961;28;20061;-72
2021/07/18 03:07:10;;;;;;;13.70;10.80;;;26.50;74.20;;;;;;5055112;28;20498;-71
2021/07/18 03:09:35;;;;;;;14.20;11.65;;;26.50;74.10;;;;;;5054460;28;20026;-71
2021/07/18 03:12:01;;;;;;;16.10;11.70;;;26.50;73.90;;;;;;5055594;28;20032;-71
2021/07/18 03:14:27;;;;;;;17.13;12.75;;;26.50;73.80;;;;;;5055375;28;20029;-71
2021/07/18 03:16:53;;;;;;;17.08;11.70;;;26.50;73.70;;;;;;5055129;28;20436;-71
2021/07/18 03:19:19;;;;;;;16.08;12.18;;;26.50;73.60;;;;;;5055442;28;20031;-71
2021/07/18 03:21:45;;;;;;;16.40;11.00;;;26.60;73.60;;;;;;5054886;28;20545;-71
2021/07/18 03:24:11;;;;;;;15.57;11.43;;;26.60;73.60;;;;;;5054785;28;20417;-72
2021/07/18 03:26:37;;;;;;;16.48;11.63;;;26.60;73.50;;;;;;5054812;28;20471;-73
2021/07/18 03:29:03;;;;;;;13.65;11.48;;;26.70;73.50;;;;;;5055173;28;20108;-71
2021/07/18 03:31:29;;;;;;;14.57;11.07;;;26.70;73.50;;;;;;5055371;28;20100;-72
2021/07/18 03:33:55;;;;;;;16.58;11.30;;;26.70;73.50;;;;;;5055179;28;20033;-72
2021/07/18 03:36:20;;;;;;;17.30;12.75;;;26.70;73.50;;;;;;5055322;28;20033;-73
2021/07/18 03:38:46;;;;;;;15.27;11.68;;;26.70;73.40;;;;;;5054672;28;20471;-73
2021/07/18 03:41:12;;;;;;;16.70;11.35;;;26.80;73.40;;;;;;5054677;28;20104;-73
2021/07/18 03:43:37;;;;;;;16.60;11.57;;;26.80;73.30;;;;;;5055108;28;20037;-73
2021/07/18 03:46:03;;;;;;;17.67;12.25;;;26.90;73.20;;;;;;5054599;28;20021;-73
2021/07/18 03:48:31;;;;;;;19.75;12.32;;;26.90;73.10;;;;;;5054497;28;20025;-73
2021/07/18 03:50:58;;;;;;;15.77;12.68;;;26.90;73.10;;;;;;5054690;28;20155;-72
2021/07/18 03:53:23;;;;;;;15.18;12.18;;;27.00;73.10;;;;;;5055279;28;20056;-73
2021/07/18 03:55:49;;;;;;;15.90;12.10;;;26.90;73.00;;;;;;5054428;28;20391;-73
2021/07/18 03:58:15;;;;;;;15.82;12.18;;;27.00;72.90;;;;;;5054658;28;20025;-73
2021/07/18 04:00:40;;;;;;;13.27;11.32;;;27.00;72.80;;;;;;5054383;28;20029;-73
2021/07/18 04:03:06;;;;;;;14.88;11.98;;;27.00;72.70;;;;;;5054290;28;20025;-73
2021/07/18 04:05:32;;;;;;;17.38;11.57;;;27.10;72.70;;;;;;5054350;28;20029;-73
2021/07/18 04:07:59;;;;;;;17.67;11.95;;;27.20;72.50;;;;;;5054349;28;20483;-73
2021/07/18 04:10:25;;;;;;;16.23;13.63;;;27.30;72.40;;;;;;5054962;28;20435;-73
2021/07/18 04:12:51;;;;;;;14.25;12.05;;;27.30;72.10;;;;;;5054307;28;20032;-73
2021/07/18 04:15:16;;;;;;;14.60;12.73;;;27.40;71.90;;;;;;5053935;28;20032;-73
2021/07/18 04:17:42;;;;;;;17.00;12.68;;;27.40;72.30;;;;;;5054129;28;20025;-73
2021/07/18 04:20:08;;;;;;;18.73;13.90;;;27.50;71.60;;;;;;5053985;28;20048;-73
2021/07/18 04:22:34;;;;;;;19.98;13.05;;;27.50;71.60;;;;;;5054367;28;20487;-73
2021/07/18 04:25:00;;;;;;;18.23;13.35;;;27.50;71.40;;;;;;5053803;28;20075;-73
2021/07/18 04:27:25;;;;;;;19.10;14.05;;;27.60;71.40;;;;;;5054380;28;20424;-73
2021/07/18 04:29:51;;;;;;;20.35;13.68;;;27.60;71.40;;;;;;5053779;28;20021;-73
2021/07/18 04:32:17;;;;;;;20.75;14.20;;;27.60;71.50;;;;;;5053979;28;20089;-72
2021/07/18 04:34:43;;;;;;;20.73;13.82;;;27.60;71.40;;;;;;5053846;28;20258;-72
2021/07/18 04:37:10;;;;;;;18.02;13.23;;;27.60;71.40;;;;;;5054111;28;20033;-72
2021/07/18 04:39:36;;;;;;;20.88;15.00;;;27.60;71.40;;;;;;5052600;28;20035;-72
2021/07/18 04:42:03;;;;;;;21.17;13.68;;;27.70;71.50;;;;;;5053765;28;20033;-72
2021/07/18 04:44:29;;;;;;;17.50;12.75;;;27.70;71.50;;;;;;5053597;28;20033;-72
2021/07/18 04:46:56;;;;;;;22.55;13.40;;;27.70;71.40;;;;;;5053675;28;20543;-73
2021/07/18 04:49:23;;;;;;;15.90;13.10;;;27.70;71.40;;;;;;5053772;28;20538;-73
2021/07/18 04:51:49;;;;;;;15.52;12.55;;;27.80;71.40;;;;;;5052463;28;20036;-73
2021/07/18 04:54:15;;;;;;;16.73;12.32;;;27.90;71.30;;;;;;5054139;28;20053;-73
2021/07/18 04:56:41;;;;;;;17.33;13.80;;;28.00;71.00;;;;;;5069146;28;20021;-74
2021/07/18 04:59:07;;;;;;;15.50;13.75;;;28.10;70.70;;;;;;5069077;28;20124;-72
2021/07/18 05:01:32;;;;;;;15.07;11.98;;;28.10;70.50;;;;;;5053331;28;20456;-72
2021/07/18 05:03:58;;;;;;;16.05;12.85;;;28.20;70.40;;;;;;5053790;28;20033;-72
2021/07/18 05:06:24;;;;;;;19.65;13.55;;;28.20;70.10;;;;;;5051905;28;20025;-72
2021/07/18 05:08:50;;;;;;;19.90;13.48;;;28.30;70.00;;;;;;5053482;28;20058;-72
2021/07/18 05:11:19;;;;;;;19.30;13.68;;;28.40;69.80;;;;;;5053418;28;20032;-71
2021/07/18 05:13:45;;;;;;;16.10;12.82;;;28.50;69.70;;;;;;5053458;28;20048;-71
2021/07/18 05:16:14;;;;;;;15.48;12.63;;;28.60;69.50;;;;;;5053670;28;20348;-72
2021/07/18 05:18:39;;;;;;;21.30;13.95;;;28.60;69.30;;;;;;5053348;28;20052;-71
2021/07/18 05:21:06;;;;;;;17.60;13.68;;;28.70;69.10;;;;;;5053380;28;20463;-72
2021/07/18 05:23:32;;;;;;;15.85;12.60;;;28.80;69.00;;;;;;5053301;28;20382;-72
2021/07/18 05:25:57;;;;;;;18.63;13.52;;;28.80;68.90;;;;;;5052841;28;20109;-72
2021/07/18 05:28:23;;;;;;;16.63;13.27;;;28.90;68.80;;;;;;5053165;28;20032;-72
2021/07/18 05:30:49;;;;;;;14.65;12.40;;;28.90;68.50;;;;;;5053103;28;20040;-73
2021/07/18 05:33:15;;;;;;;14.43;12.50;;;29.00;68.20;;;;;;5055149;28;20028;-72
2021/07/18 05:35:40;;;;;;;13.73;12.27;;;29.00;67.80;;;;;;5057510;28;20100;-72
2021/07/18 05:38:06;;;;;;;13.55;11.27;;;29.00;67.30;;;;;;5057274;28;20025;-73
2021/07/18 05:40:33;;;;;;;15.90;12.20;;;29.10;67.30;;;;;;5057666;28;20067;-73
2021/07/18 05:42:58;;;;;;;18.55;12.48;;;29.20;67.30;;;;;;5057115;28;20420;-72
2021/07/18 05:45:24;;;;;;;14.13;12.00;;;29.20;67.20;;;;;;5056761;28;20073;-72
2021/07/18 05:47:50;;;;;;;14.13;12.07;;;29.30;67.10;;;;;;5057313;28;20061;-72
2021/07/18 05:50:16;;;;;;;15.80;13.48;;;29.40;67.30;;;;;;5056937;28;20545;-75
2021/07/18 05:52:42;;;;;;;16.55;12.85;;;29.40;67.40;;;;;;5056826;28;20112;-72
2021/07/18 05:55:09;;;;;;;18.23;13.68;;;29.60;67.50;;;;;;5056189;28;20060;-73
2021/07/18 05:57:35;;;;;;;19.13;13.48;;;29.70;67.20;;;;;;5056886;28;20531;-72
2021/07/18 06:00:04;;;;;;;15.73;12.88;;;29.70;67.10;;;;;;5056581;28;20025;-72
2021/07/18 06:02:29;;;;;;;17.35;13.23;;;29.80;67.30;;;;;;5056941;28;20025;-73
2021/07/18 06:04:55;;;;;;;20.27;14.30;;;29.90;67.30;;;;;;5056968;28;20478;-72
2021/07/18 06:07:21;;;;;;;17.27;13.93;;;30.00;67.30;;;;;;5056664;28;20383;-74
2021/07/18 06:09:46;;;;;;;17.60;13.07;;;30.10;67.20;;;;;;5057173;28;20083;-72
2021/07/18 06:12:12;;;;;;;14.32;12.75;;;30.20;67.30;;;;;;5056610;28;20463;-71
2021/07/18 06:14:39;;;;;;;17.75;13.07;;;30.20;67.10;;;;;;5056363;28;20037;-72
2021/07/18 06:17:06;;;;;;;14.52;12.68;;;30.30;67.00;;;;;;5056553;28;20021;-72
2021/07/18 06:19:31;;;;;;;20.67;13.30;;;30.30;66.60;;;;;;5056134;28;20025;-72
2021/07/18 06:21:57;;;;;;;17.52;13.00;;;30.40;66.60;;;;;;5056173;28;20360;-72
2021/07/18 06:24:23;;;;;;;18.88;14.15;;;30.50;66.50;;;;;;5056699;28;20033;-73
2021/07/18 06:26:49;;;;;;;16.05;13.18;;;30.60;66.40;;;;;;5056736;28;20510;-72
2021/07/18 06:29:14;;;;;;;15.10;13.50;;;30.60;66.30;;;;;;5056411;28;20060;-72
2021/07/18 06:31:40;;;;;;;19.30;13.75;;;30.70;66.20;;;;;;5056034;28;20056;-72
2021/07/18 06:34:06;;;;;;;17.48;13.88;;;30.80;66.00;;;;;;5056142;28;20032;-72
2021/07/18 06:36:32;;;;;;;15.85;13.43;;;30.80;65.60;;;;;;5056021;28;20506;-72
2021/07/18 06:38:58;;;;;;;20.00;15.27;;;30.90;65.50;;;;;;5055988;28;20115;-73
2021/07/18 06:41:24;;;;;;;17.75;13.43;;;30.90;65.40;;;;;;5056277;28;20104;-73
2021/07/18 06:43:50;;;;;;;17.25;12.82;;;31.00;65.20;;;;;;5055602;28;20094;-72
2021/07/18 06:46:15;;;;;;;14.48;12.93;;;31.10;65.20;;;;;;5055296;28;20025;-72
2021/07/18 06:48:41;;;;;;;19.58;13.43;;;31.20;65.20;;;;;;5055884;28;20384;-72
2021/07/18 06:51:07;;;;;;;17.33;13.02;;;31.30;65.10;;;;;;5055922;28;20057;-73
2021/07/18 06:53:35;;;;;;;16.23;12.73;;;31.30;64.80;;;;;;5071313;28;20053;-72
2021/07/18 06:56:01;;;;;;;16.52;13.05;;;31.40;64.40;;;;;;5056121;28;20032;-73
2021/07/18 06:58:27;;;;;;;17.80;13.30;;;31.40;64.50;;;;;;5056168;28;20025;-73
2021/07/18 07:00:52;;;;;;;13.45;12.15;;;31.50;64.40;;;;;;5054265;28;20206;-71
2021/07/18 07:03:18;;;;;;;15.52;12.88;;;31.60;64.40;;;;;;5055441;28;20051;-72
2021/07/18 07:05:44;;;;;;;17.60;13.25;;;31.60;64.40;;;;;;5055263;28;20078;-74
2021/07/18 07:08:09;;;;;;;14.50;12.88;;;31.70;64.50;;;;;;5055580;28;20035;-73
2021/07/18 07:10:35;;;;;;;15.43;13.35;;;31.70;64.40;;;;;;5054125;28;20469;-73
2021/07/18 07:13:01;;;;;;;14.57;12.70;;;31.70;64.40;;;;;;5054861;28;20123;-73
2021/07/18 07:15:27;;;;;;;15.45;13.55;;;31.80;64.50;;;;;;5055178;28;20061;-74
2021/07/18 07:17:53;;;;;;;14.60;12.45;;;31.90;64.50;;;;;;5055537;28;20100;-72
2021/07/18 07:20:19;;;;;;;15.40;12.70;;;31.90;64.30;;;;;;5055557;28;20025;-73
2021/07/18 07:22:44;;;;;;;15.20;13.30;;;31.90;64.20;;;;;;5055082;28;20025;-73
2021/07/18 07:25:13;;;;;;;15.38;12.45;;;32.00;64.20;;;;;;5054982;28;20029;-74
2021/07/18 07:27:39;;;;;;;13.05;11.40;;;32.10;64.40;;;;;;5055288;28;20029;-74
2021/07/18 07:30:10;;;;;;;16.13;11.75;;;32.10;63.40;;;;;;5055035;28;20048;-73
2021/07/18 07:32:37;;;;;;;16.70;12.32;;;32.20;63.10;;;;;;5054808;28;20028;-73
2021/07/18 07:35:07;;;;;;;14.88;12.02;;;32.30;62.80;;;;;;5055599;28;20025;-73
2021/07/18 07:37:34;;;;;;;15.43;12.70;;;32.30;62.40;;;;;;5054845;28;20402;-73
2021/07/18 07:40:02;;;;;;;13.07;11.15;;;32.30;62.30;;;;;;5054807;28;20028;-72
2021/07/18 07:42:28;;;;;;;16.08;11.88;;;32.40;62.20;;;;;;5054789;28;20032;-72
2021/07/18 07:44:53;;;;;;;12.77;11.23;;;32.50;61.70;;;;;;5054490;28;20029;-72
2021/07/18 07:47:20;;;;;;;18.75;11.18;;;32.50;61.40;;;;;;5054750;28;20581;-73
2021/07/18 07:49:47;;;;;;;12.95;9.65;;;32.50;60.70;;;;;;5055117;28;20029;-72
2021/07/18 07:52:13;;;;;;;15.95;10.73;;;32.60;60.70;;;;;;5054441;28;20040;-73
2021/07/18 07:54:40;;;;;;;12.20;10.60;;;32.70;60.50;;;;;;5054164;28;20499;-72
2021/07/18 07:57:06;;;;;;;14.27;11.13;;;32.80;60.00;;;;;;5054402;28;20025;-72
2021/07/18 07:59:32;;;;;;;12.85;10.27;;;32.80;59.90;;;;;;5054208;28;20024;-73
2021/07/18 08:01:58;;;;;;;12.48;9.88;;;32.90;59.50;;;;;;5054363;28;20033;-73
2021/07/18 08:04:25;;;;;;;11.88;10.00;;;33.00;59.50;;;;;;5054835;28;20083;-73
2021/07/18 08:06:51;;;;;;;19.40;10.38;;;33.00;59.10;;;;;;5054202;28;20029;-72
2021/07/18 08:09:17;;;;;;;11.32;9.40;;;33.10;58.60;;;;;;5054567;28;20092;-73
2021/07/18 08:11:42;;;;;;;11.18;9.25;;;33.20;58.40;;;;;;5053918;28;20025;-73
2021/07/18 08:14:08;;;;;;;12.45;9.77;;;33.30;58.60;;;;;;5053897;28;20065;-73
2021/07/18 08:16:34;;;;;;;11.32;10.20;;;33.40;58.20;;;;;;5054689;28;20459;-73
2021/07/18 08:19:00;;;;;;;13.38;9.70;;;33.50;57.90;;;;;;5054178;28;20029;-73
2021/07/18 08:21:25;;;;;;;10.00;8.32;;;33.70;57.40;;;;;;5054163;28;20021;-73
2021/07/18 08:23:51;;;;;;;9.73;7.93;;;33.80;56.50;;;;;;5053609;28;20510;-73
2021/07/18 08:26:17;;;;;;;11.52;8.77;;;33.90;55.60;;;;;;5053595;28;20032;-72
2021/07/18 08:28:43;;;;;;;9.63;7.97;;;34.10;55.70;;;;;;5053870;28;20029;-72
2021/07/18 08:31:10;;;;;;;9.45;8.43;;;34.20;54.80;;;;;;5053756;28;20020;-73
2021/07/18 08:33:35;;;;;;;10.35;8.52;;;34.30;54.20;;;;;;5054065;28;20374;-72
2021/07/18 08:36:01;;;;;;;14.07;8.77;;;34.40;54.60;;;;;;5053800;28;20025;-73
2021/07/18 08:38:28;;;;;;;9.65;7.95;;;34.60;55.00;;;;;;5053654;28;20464;-74
2021/07/18 08:40:54;;;;;;;9.70;7.75;;;34.90;53.40;;;;;;5053364;28;20100;-72
2021/07/18 08:43:20;;;;;;;9.00;7.40;;;35.00;53.00;;;;;;5069697;28;20400;-73
2021/07/18 08:45:46;;;;;;;8.60;7.40;;;35.20;52.90;;;;;;5053659;28;20025;-73
2021/07/18 08:48:12;;;;;;;11.20;7.20;;;35.40;52.50;;;;;;5053927;28;20021;-73
2021/07/18 08:50:38;;;;;;;11.75;6.97;;;35.60;51.80;;;;;;5053334;28;20025;-73
2021/07/18 08:53:05;;;;;;;6.90;6.22;;;35.80;50.70;;;;;;5053443;28;20049;-73
2021/07/18 08:55:31;;;;;;;7.70;6.40;;;35.90;50.00;;;;;;5053880;28;20032;-73
2021/07/18 08:57:57;;;;;;;9.93;7.85;;;36.00;49.70;;;;;;5053147;28;20213;-73
2021/07/18 09:00:23;;;;;;;9.10;6.25;;;36.20;49.20;;;;;;5053380;28;20028;-73
2021/07/18 09:02:49;;;;;;;7.18;6.38;;;36.50;48.60;;;;;;5053970;28;20438;-73
2021/07/18 09:05:16;;;;;;;7.13;5.97;;;36.60;48.00;;;;;;5053114;28;20032;-72
2021/07/18 09:07:54;;;;;;;9.10;6.55;;;36.80;47.40;;;;;;5052388;28;20467;-73
2021/07/18 09:10:28;;;;;;;12.32;7.20;;;37.00;47.30;;;;;;5053759;28;20437;-73
2021/07/18 09:13:11;;;;;;;7.97;7.28;;;37.30;47.60;;;;;;5053334;28;20021;-72
2021/07/18 09:15:54;;;;;;;7.72;7.03;;;37.50;47.30;;;;;;5053639;28;20363;-74
2021/07/18 09:18:23;;;;;;;10.70;7.30;;;37.70;47.00;;;;;;5053427;28;20033;-74
2021/07/18 09:20:52;;;;;;;7.68;6.93;;;37.90;47.00;;;;;;5053353;28;20078;-73
2021/07/18 09:23:30;;;;;;;9.38;7.72;;;38.10;46.70;;;;;;5053047;28;20482;-74
2021/07/18 09:26:20;;;;;;;9.45;8.18;;;38.30;46.80;;;;;;5053514;28;20041;-74
2021/07/18 09:28:47;;;;;;;8.98;8.07;;;38.60;46.40;;;;;;5053257;28;20071;-74
2021/07/18 09:31:30;;;;;;;9.27;7.03;;;38.80;46.10;;;;;;5053185;28;20029;-73
2021/07/18 09:34:19;;;;;;;8.43;7.63;;;39.00;45.60;;;;;;5053712;28;20052;-72
2021/07/18 09:36:46;;;;;;;8.77;7.93;;;39.10;45.30;;;;;;5053455;28;20025;-73
2021/07/18 09:39:13;;;;;;;8.60;7.57;;;39.40;46.00;;;;;;5068532;28;20029;-72
2021/07/18 09:41:42;;;;;;;7.90;7.20;;;39.60;45.10;;;;;;5052686;28;20585;-72
2021/07/18 09:44:08;;;;;;;8.38;7.57;;;39.80;44.70;;;;;;5052295;28;20487;-72
2021/07/18 09:46:34;;;;;;;8.40;7.60;;;40.20;44.40;;;;;;5052955;28;20031;-73
2021/07/18 09:49:03;;;;;;;8.02;7.22;;;40.30;43.90;;;;;;5053361;28;20045;-72
2021/07/18 09:51:33;;;;;;;8.20;7.50;;;40.50;43.60;;;;;;5052905;28;20025;-73
2021/07/18 09:54:10;;;;;;;9.32;7.50;;;40.60;43.40;;;;;;5053881;28;20099;-72
2021/07/18 09:56:36;;;;;;;9.05;7.05;;;40.90;43.20;;;;;;5053122;28;20120;-73
2021/07/18 09:59:04;;;;;;;8.52;6.75;;;41.30;42.90;;;;;;5052778;28;20518;-73
2021/07/18 10:01:32;;;;;;;10.68;7.65;;;41.50;42.50;;;;;;5053004;28;20078;-74
2021/07/18 10:04:01;;;;;;;8.35;7.55;;;41.80;42.20;;;;;;5053143;28;20058;-74
2021/07/18 10:06:30;;;;;;;10.48;7.68;;;42.00;41.70;;;;;;5053386;28;20466;-73
2021/07/18 10:09:01;;;;;;;7.97;7.28;;;42.20;41.60;;;;;;5052615;28;20021;-72
2021/07/18 10:11:29;;;;;;;8.55;7.75;;;42.40;41.30;;;;;;5052981;28;20083;-72
2021/07/18 10:13:57;;;;;;;9.38;8.02;;;42.40;41.10;;;;;;5052818;28;20036;-73
2021/07/18 10:16:24;;;;;;;8.05;7.40;;;42.60;41.10;;;;;;5068315;28;20025;-73
2021/07/18 10:18:52;;;;;;;8.00;7.30;;;42.70;40.80;;;;;;5053312;28;20502;-72
2021/07/18 10:21:20;;;;;;;8.02;7.30;;;42.90;40.60;;;;;;5056461;28;20190;-72
2021/07/18 10:23:48;;;;;;;7.95;7.22;;;42.90;40.50;;;;;;5056329;28;20481;-73
2021/07/18 10:26:18;;;;;;;10.38;7.63;;;43.10;40.50;;;;;;5056263;28;20116;-73
2021/07/18 10:28:45;;;;;;;9.13;7.40;;;43.10;40.30;;;;;;5056336;28;20032;-72
2021/07/18 10:31:22;;;;;;;8.77;7.97;;;43.10;40.30;;;;;;5056252;28;20060;-72
2021/07/18 10:33:49;;;;;;;12.80;7.22;;;43.30;40.30;;;;;;5056028;28;20047;-73
2021/07/18 10:36:18;;;;;;;8.02;7.28;;;43.50;40.30;;;;;;5056331;28;20463;-73
2021/07/18 10:38:44;;;;;;;8.07;7.38;;;43.60;39.90;;;;;;5055960;28;20032;-73
2021/07/18 10:41:11;;;;;;;8.85;7.93;;;43.80;39.80;;;;;;5056391;28;20463;-73
2021/07/18 10:43:41;;;;;;;8.38;7.57;;;44.00;39.50;;;;;;5055607;28;20032;-73
2021/07/18 10:46:12;;;;;;;9.70;7.32;;;44.10;39.30;;;;;;5056518;28;20029;-74
2021/07/18 10:48:49;;;;;;;8.68;7.82;;;44.30;39.00;;;;;;5054591;28;20037;-72
2021/07/18 10:51:35;;;;;;;8.68;7.20;;;44.50;38.80;;;;;;5056083;28;20040;-73
2021/07/18 10:54:10;;;;;;;9.82;7.70;;;44.60;38.80;;;;;;5055904;28;20064;-74
2021/07/18 10:56:42;;;;;;;8.82;7.13;;;44.70;38.70;;;;;;5055817;28;20025;-74
2021/07/18 10:59:07;;;;;;;7.82;7.13;;;44.70;38.60;;;;;;5055886;28;20029;-73
2021/07/18 11:01:37;;;;;;;8.25;7.38;;;44.80;38.40;;;;;;5055653;28;20087;-73
2021/07/18 11:04:04;;;;;;;8.52;6.82;;;44.90;38.30;;;;;;5056240;28;20348;-73
2021/07/18 11:06:31;;;;;;;9.38;7.40;;;45.00;38.10;;;;;;5054389;28;20079;-73
2021/07/18 11:09:13;;;;;;;8.48;7.68;;;45.20;37.70;;;;;;5055287;28;20024;-73
2021/07/18 11:11:41;;;;;;;8.10;7.40;;;45.40;37.40;;;;;;5055665;28;20040;-72
2021/07/18 11:14:26;;;;;;;8.63;7.03;;;45.50;37.40;;;;;;5055359;28;20092;-72
2021/07/18 11:16:56;;;;;;;7.28;6.50;;;45.60;37.30;;;;;;5055391;28;20021;-72
2021/07/18 11:19:39;;;;;;;8.30;7.55;;;45.70;37.10;;;;;;5055495;28;20032;-73
2021/07/18 11:22:13;;;;;;;7.53;6.82;;;45.90;36.90;;;;;;5055487;28;20032;-73
2021/07/18 11:24:54;;;;;;;7.85;7.15;;;46.00;36.90;;;;;;5055355;28;20535;-73
2021/07/18 11:27:34;;;;;;;8.85;6.30;;;46.20;36.90;;;;;;5055069;28;20033;-73
2021/07/18 11:30:03;;;;;;;7.15;6.47;;;46.40;36.50;;;;;;5054939;28;20021;-72
2021/07/18 11:32:32;;;;;;;7.30;6.60;;;46.60;36.20;;;;;;5054783;28;20020;-72
2021/07/18 11:34:59;;;;;;;6.35;5.72;;;46.90;36.00;;;;;;5055886;28;20033;-72
2021/07/18 11:37:31;;;;;;;6.60;6.07;;;47.00;36.00;;;;;;5054843;28;20036;-73
2021/07/18 11:40:09;;;;;;;9.15;6.70;;;47.20;35.90;;;;;;5055033;28;20017;-73
2021/07/18 11:42:35;;;;;;;7.38;6.78;;;47.40;35.80;;;;;;5055469;28;20120;-73
2021/07/18 11:45:08;;;;;;;8.18;6.95;;;47.60;35.70;;;;;;5054808;28;20116;-72
2021/07/18 11:47:34;;;;;;;8.63;6.72;;;47.70;35.20;;;;;;5054512;28;20471;-72
2021/07/18 11:49:59;;;;;;;7.25;6.60;;;47.70;35.30;;;;;;5055283;28;20028;-73
2021/07/18 11:52:26;;;;;;;8.43;7.38;;;47.80;35.20;;;;;;5054786;28;20029;-73
2021/07/18 11:54:53;;;;;;;6.95;6.28;;;47.90;35.10;;;;;;5055561;28;20063;-73
2021/07/18 11:57:19;;;;;;;7.07;6.47;;;48.10;35.10;;;;;;5054596;28;20029;-72
2021/07/18 11:59:47;;;;;;;7.80;7.10;;;48.30;34.80;;;;;;5054764;28;20430;-73
2021/07/18 12:02:14;;;;;;;6.75;6.22;;;48.50;35.30;;;;;;5054720;28;20095;-73
2021/07/18 12:04:40;;;;;;;8.27;6.35;;;48.60;35.10;;;;;;5054363;28;20021;-73
2021/07/18 12:07:09;;;;;;;7.43;6.72;;;48.80;34.90;;;;;;5054571;28;20040;-73
2021/07/18 12:09:52;;;;;;;7.18;6.47;;;48.90;34.60;;;;;;5055337;28;20025;-73
2021/07/18 12:12:20;;;;;;;7.60;6.90;;;49.10;34.70;;;;;;5054429;28;20028;-73
2021/07/18 12:14:46;;;;;;;8.18;7.03;;;49.30;34.40;;;;;;5054279;28;20037;-72
2021/07/18 12:17:13;;;;;;;7.45;6.72;;;49.40;34.40;;;;;;5054202;28;20124;-72
2021/07/18 12:19:40;;;;;;;7.47;6.22;;;49.60;34.10;;;;;;5054440;28;20376;-73
2021/07/18 12:22:14;;;;;;;6.90;6.30;;;49.70;34.00;;;;;;5054149;28;20380;-72
2021/07/18 12:24:53;;;;;;;7.20;6.60;;;49.70;33.90;;;;;;5053863;28;20032;-73
2021/07/18 12:27:23;;;;;;;8.70;6.60;;;49.80;33.80;;;;;;5054290;28;20036;-74
2021/07/18 12:29:50;;;;;;;6.70;5.95;;;49.90;33.60;;;;;;5054039;28;20075;-74
2021/07/18 12:32:17;;;;;;;7.60;7.10;;;50.00;33.50;;;;;;5053767;28;20025;-74
2021/07/18 12:34:49;;;;;;;10.27;7.05;;;50.10;33.20;;;;;;5053909;28;20033;-75